createdAt,value
2022-09-26T00:01:15.020Z,3.42
2022-09-26T00:06:12.561Z,4.05
2022-09-26T00:11:11.025Z,2.95
2022-09-26T00:16:08.416Z,3.13
2022-09-26T00:21:09.121Z,3.90
2022-09-26T00:26:06.416Z,3.03
2022-09-26T00:31:19.001Z,3.13
2022-09-26T00:36:16.387Z,3.70
2022-09-26T00:41:13.689Z,5.03
2022-09-26T00:46:16.117Z,3.80
2022-09-26T00:51:12.680Z,3.70
2022-09-26T00:56:15.978Z,3.20
2022-09-26T01:01:13.873Z,3.70
2022-09-26T01:06:11.343Z,3.55
2022-09-26T01:11:11.562Z,3.13
2022-09-26T01:16:11.287Z,3.60
2022-09-26T01:21:29.759Z,4.60
2022-09-26T01:32:17.185Z,3.65
2022-09-26T01:37:37.825Z,4.60
2022-09-26T01:43:00.105Z,4.07
2022-09-26T01:48:21.136Z,3.58
2022-09-26T01:53:47.016Z,4.15
2022-09-26T01:58:59.799Z,3.90
2022-09-26T02:03:59.951Z,4.32
2022-09-26T02:09:01.159Z,3.92
2022-09-26T02:14:21.603Z,3.70
2022-09-26T02:19:28.827Z,4.13
2022-09-26T02:24:25.278Z,3.80
2022-09-26T02:29:21.674Z,3.65
2022-09-26T02:34:17.957Z,3.40
2022-09-26T02:39:14.375Z,4.05
2022-09-26T02:44:46.513Z,4.57
2022-09-26T02:50:14.751Z,3.70
2022-09-26T02:55:34.050Z,3.42
2022-09-26T03:00:47.417Z,3.15
2022-09-26T03:05:45.942Z,4.05
2022-09-26T03:15:41.699Z,3.22
2022-09-26T03:20:38.565Z,3.72
2022-09-26T03:25:35.171Z,3.28
2022-09-26T03:30:31.741Z,3.45
2022-09-26T03:35:28.041Z,3.75
2022-09-26T03:40:24.332Z,3.60
2022-09-26T03:45:21.176Z,3.45
2022-09-26T03:50:17.538Z,3.40
2022-09-26T03:55:14.700Z,2.67
2022-09-26T04:00:11.906Z,3.42
2022-09-26T04:05:08.788Z,3.55
2022-09-26T04:10:05.633Z,3.72
2022-09-26T04:15:02.379Z,3.22
2022-09-26T04:19:59.489Z,3.20
2022-09-26T04:24:55.861Z,3.58
2022-09-26T04:29:52.540Z,3.58
2022-09-26T04:34:48.815Z,3.00
2022-09-26T04:39:45.147Z,3.75
2022-09-26T04:44:41.470Z,3.60
2022-09-26T04:49:37.742Z,4.00
2022-09-26T04:54:37.379Z,3.78
2022-09-26T04:59:33.634Z,4.13
2022-09-26T05:04:33.262Z,4.20
2022-09-26T05:09:34.135Z,4.03
2022-09-26T05:14:35.286Z,3.80
2022-09-26T05:19:32.785Z,4.20
2022-09-26T05:24:47.535Z,2.78
2022-09-26T05:29:44.154Z,3.90
2022-09-26T05:34:40.451Z,4.22
2022-09-26T05:39:55.451Z,4.47
2022-09-26T05:44:53.403Z,3.72
2022-09-26T05:49:49.674Z,4.88
2022-09-26T05:54:45.969Z,4.53
2022-09-26T05:59:42.449Z,5.47
2022-09-26T06:04:38.948Z,4.80
2022-09-26T06:09:35.243Z,5.72
2022-09-26T06:14:32.013Z,6.32
2022-09-26T06:19:28.307Z,6.43
2022-09-26T06:24:24.567Z,6.05
2022-09-26T06:29:20.845Z,6.72
2022-09-26T06:34:17.128Z,7.70
2022-09-26T06:39:14.798Z,7.32
2022-09-26T06:44:11.278Z,7.15
2022-09-26T06:49:07.566Z,7.18
2022-09-26T06:54:04.097Z,7.88
2022-09-26T06:59:00.381Z,8.32
2022-09-26T07:03:56.790Z,7.40
2022-09-26T07:09:12.161Z,6.97
2022-09-26T07:14:09.040Z,7.60
2022-09-26T07:19:05.447Z,7.47
2022-09-26T07:24:01.961Z,6.15
2022-09-26T07:28:58.230Z,6.50
2022-09-26T07:33:54.578Z,6.78
2022-09-26T07:38:50.881Z,6.20
2022-09-26T07:44:52.999Z,5.97
2022-09-26T07:49:21.896Z,5.47
2022-09-26T07:54:18.167Z,4.95
2022-09-26T07:59:14.427Z,4.95
2022-09-26T08:04:12.260Z,4.32
2022-09-26T08:09:08.649Z,3.92
2022-09-26T08:14:04.907Z,5.07
2022-09-26T08:19:01.657Z,3.85
2022-09-26T08:23:58.022Z,3.40
2022-09-26T08:28:54.871Z,3.45
2022-09-26T08:33:51.150Z,3.75
2022-09-26T08:38:49.944Z,3.30
2022-09-26T08:43:57.665Z,2.65
2022-09-26T08:49:16.508Z,2.63
2022-09-26T08:54:17.580Z,2.75
2022-09-26T08:59:24.139Z,3.17
2022-09-26T09:04:26.219Z,2.83
2022-09-26T09:09:22.795Z,2.40
2022-09-26T09:14:19.046Z,2.90
2022-09-26T09:19:30.137Z,2.92
2022-09-26T09:24:50.655Z,2.20
2022-09-26T09:29:56.641Z,2.20
2022-09-26T09:34:54.168Z,2.08
2022-09-26T09:39:51.654Z,1.90
2022-09-26T09:44:54.282Z,1.83
2022-09-26T09:49:51.805Z,2.60
2022-09-26T09:55:22.045Z,1.83
2022-09-26T10:00:23.983Z,1.58
2022-09-26T10:05:23.981Z,2.95
2022-09-26T10:10:24.854Z,1.73
2022-09-26T10:15:26.236Z,2.33
2022-09-26T10:20:53.068Z,2.67
2022-09-26T10:25:53.304Z,2.78
2022-09-26T10:31:00.205Z,2.30
2022-09-26T10:36:07.187Z,2.63
2022-09-26T10:41:03.659Z,2.00
2022-09-26T10:46:10.671Z,2.53
2022-09-26T10:51:09.281Z,2.67
2022-09-26T10:56:14.559Z,2.92
2022-09-26T11:01:20.919Z,2.88
2022-09-26T11:06:34.067Z,2.58
2022-09-26T11:11:37.030Z,2.83
2022-09-26T11:16:39.365Z,2.53
2022-09-26T11:21:38.340Z,2.55
2022-09-26T11:27:05.528Z,2.22
2022-09-26T11:32:02.395Z,2.45
2022-09-26T11:37:16.952Z,3.42
2022-09-26T11:42:42.674Z,2.60
2022-09-26T11:48:16.902Z,2.15
2022-09-26T11:53:34.758Z,2.50
2022-09-26T11:58:43.339Z,1.80
2022-09-26T12:03:49.982Z,2.17
2022-09-26T12:09:15.052Z,1.60
2022-09-26T12:14:44.487Z,2.72
2022-09-26T12:19:55.732Z,2.00
2022-09-26T12:25:25.518Z,2.00
2022-09-26T12:30:29.908Z,2.20
2022-09-26T12:35:44.635Z,1.70
2022-09-26T12:41:14.146Z,2.35
2022-09-26T12:46:31.947Z,1.80
2022-09-26T12:51:48.970Z,1.45
2022-09-26T12:57:04.893Z,1.70
2022-09-26T13:02:37.747Z,1.50
2022-09-26T13:08:02.955Z,1.30
2022-09-26T13:13:18.062Z,1.70
2022-09-26T13:18:26.578Z,1.30
2022-09-26T13:23:30.631Z,1.48
2022-09-26T13:28:38.609Z,1.20
2022-09-26T13:34:13.215Z,0.82
2022-09-26T13:39:21.546Z,1.25
2022-09-26T13:44:53.132Z,1.00
2022-09-26T13:50:15.949Z,0.95
2022-09-26T13:55:19.377Z,0.90
2022-09-26T14:00:25.747Z,0.70
2022-09-26T14:05:22.104Z,1.02
2022-09-26T14:10:34.748Z,0.90
2022-09-26T14:15:49.428Z,0.90
2022-09-26T14:20:56.335Z,0.65
2022-09-26T14:25:55.597Z,1.33
2022-09-26T14:31:17.112Z,1.20
2022-09-26T14:36:46.698Z,1.23
2022-09-26T14:41:43.581Z,1.05
2022-09-26T14:46:41.254Z,1.05
2022-09-26T14:51:41.077Z,1.88
2022-09-26T14:56:50.958Z,1.52
2022-09-26T15:01:47.478Z,2.05
2022-09-26T15:06:47.622Z,1.50
2022-09-26T15:12:08.787Z,1.52
2022-09-26T15:17:06.581Z,1.40
2022-09-26T15:22:12.692Z,1.23
2022-09-26T15:27:17.995Z,1.52
2022-09-26T15:32:19.304Z,1.77
2022-09-26T15:37:24.568Z,1.90
2022-09-26T15:42:45.503Z,1.73
2022-09-26T15:47:43.312Z,2.05
2022-09-26T15:52:48.886Z,1.80
2022-09-26T15:57:50.655Z,1.73
2022-09-26T16:02:47.598Z,1.50
2022-09-26T16:07:50.681Z,1.98
2022-09-26T16:12:47.505Z,1.70
2022-09-26T16:17:54.599Z,1.70
2022-09-26T16:22:54.635Z,1.60
2022-09-26T16:28:00.136Z,1.60
2022-09-26T16:33:16.282Z,1.70
2022-09-26T16:38:35.743Z,1.20
2022-09-26T16:43:32.910Z,1.52
2022-09-26T16:48:35.861Z,2.08
2022-09-26T16:53:32.156Z,1.80
2022-09-26T16:58:28.465Z,1.30
2022-09-26T17:03:30.072Z,2.25
2022-09-26T17:08:28.236Z,1.30
2022-09-26T17:13:27.505Z,1.58
2022-09-26T17:18:29.048Z,1.42
2022-09-26T17:23:40.077Z,1.63
2022-09-26T17:28:40.605Z,1.95
2022-09-26T17:33:40.618Z,1.80
2022-09-26T17:38:40.255Z,1.33
2022-09-26T17:43:36.606Z,1.65
2022-09-26T17:48:33.116Z,1.15
2022-09-26T17:53:36.559Z,1.98
2022-09-26T17:58:34.433Z,1.20
2022-09-26T18:03:34.034Z,1.37
2022-09-26T18:08:33.628Z,1.73
2022-09-26T18:13:33.875Z,1.13
2022-09-26T18:18:32.312Z,1.75
2022-09-26T18:28:33.028Z,1.40
2022-09-26T18:33:35.741Z,1.63
2022-09-26T18:38:35.409Z,1.80
2022-09-26T18:43:37.632Z,1.60
2022-09-26T18:48:38.252Z,1.50
2022-09-26T18:53:37.381Z,1.53
2022-09-26T18:58:34.888Z,1.35
2022-09-26T19:03:34.357Z,1.60
2022-09-26T19:08:37.908Z,2.03
2022-09-26T19:13:34.258Z,1.35
2022-09-26T19:18:30.655Z,1.67
2022-09-26T19:23:31.577Z,1.55
2022-09-26T19:28:32.281Z,1.70
2022-09-26T19:33:29.158Z,1.95
2022-09-26T19:38:26.681Z,1.98
2022-09-26T19:43:23.093Z,1.97
2022-09-26T19:48:21.885Z,1.67
2022-09-26T19:53:21.432Z,1.77
2022-09-26T19:58:20.544Z,1.52
2022-09-26T20:03:19.887Z,1.90
2022-09-26T20:08:21.863Z,1.65
2022-09-26T20:13:18.655Z,1.80
2022-09-26T20:18:21.492Z,1.60
2022-09-26T20:23:22.398Z,2.03
2022-09-26T20:28:18.746Z,2.03
2022-09-26T20:33:15.201Z,1.63
2022-09-26T20:38:25.165Z,1.50
2022-09-26T20:43:28.527Z,2.10
2022-09-26T20:48:27.617Z,2.10
2022-09-26T20:53:24.873Z,2.25
2022-09-26T20:58:21.923Z,1.67
2022-09-26T21:03:21.903Z,1.90
2022-09-26T21:08:27.654Z,1.75
2022-09-26T21:13:24.060Z,1.45
2022-09-26T21:18:27.118Z,1.48
2022-09-26T21:23:24.103Z,1.50
2022-09-26T21:28:26.542Z,1.95
2022-09-26T21:33:23.466Z,1.80
2022-09-26T21:38:20.520Z,1.17
2022-09-26T21:43:22.456Z,1.65
2022-09-26T21:48:18.765Z,1.60
2022-09-26T21:53:19.327Z,1.50
2022-09-26T21:58:22.701Z,2.00
2022-09-26T22:03:19.057Z,1.83
2022-09-26T22:08:15.510Z,2.22
2022-09-26T22:13:11.794Z,2.65
2022-09-26T22:18:08.086Z,2.83
2022-09-26T22:23:04.385Z,2.97
2022-09-26T22:28:00.897Z,3.38
2022-09-26T22:32:57.388Z,3.47
2022-09-26T22:37:53.707Z,3.90
2022-09-26T22:42:50.935Z,4.40
2022-09-26T22:47:47.238Z,5.13
2022-09-26T22:52:43.878Z,5.30
2022-09-26T22:57:40.181Z,5.60
2022-09-26T23:02:37.958Z,5.68
2022-09-26T23:07:34.317Z,6.20
2022-09-26T23:12:32.191Z,5.95
2022-09-26T23:17:28.946Z,6.60
2022-09-26T23:22:25.258Z,6.82
2022-09-26T23:27:21.916Z,6.00
2022-09-26T23:32:18.210Z,5.60
2022-09-26T23:37:14.495Z,6.03
2022-09-26T23:42:11.455Z,5.88
2022-09-26T23:47:07.940Z,6.43
2022-09-26T23:52:04.280Z,7.18
2022-09-26T23:57:00.604Z,7.20
